sensor_id;sensor_type;location;lat;lon;timestamp;P1;durP1;ratioP1;P2;durP2;ratioP2
16543;SDS011;8384;47.996;7.786;2023-03-01T00:01:44;26.60;;;24.10;;
16543;SDS011;8384;47.996;7.786;2023-03-01T00:04:10;25.95;;;23.65;;
16543;SDS011;8384;47.996;7.786;2023-03-01T00:06:35;28.20;;;25.60;;
16543;SDS011;8384;47.996;7.786;2023-03-01T00:09:00;26.20;;;23.87;;
16543;SDS011;8384;47.996;7.786;2023-03-01T00:11:27;28.83;;;26.23;;
16543;SDS011;8384;47.996;7.786;2023-03-01T00:13:55;25.20;;;22.92;;
16543;SDS011;8384;47.996;7.786;2023-03-01T00:16:26;26.95;;;24.52;;
16543;SDS011;8384;47.996;7.786;2023-03-01T00:18:56;25.55;;;23.15;;
16543;SDS011;8384;47.996;7.786;2023-03-01T00:21:22;34.72;;;31.27;;
16543;SDS011;8384;47.996;7.786;2023-03-01T00:23:48;24.35;;;22.25;;
16543;SDS011;8384;47.996;7.786;2023-03-01T00:26:14;24.60;;;22.30;;
16543;SDS011;8384;47.996;7.786;2023-03-01T00:28:40;23.80;;;21.60;;
16543;SDS011;8384;47.996;7.786;2023-03-01T00:31:07;23.43;;;21.33;;
16543;SDS011;8384;47.996;7.786;2023-03-01T00:33:34;22.85;;;20.75;;
16543;SDS011;8384;47.996;7.786;2023-03-01T00:36:00;23.23;;;21.17;;
16543;SDS011;8384;47.996;7.786;2023-03-01T00:38:26;23.10;;;20.90;;
16543;SDS011;8384;47.996;7.786;2023-03-01T00:40:51;22.93;;;20.73;;
16543;SDS011;8384;47.996;7.786;2023-03-01T00:43:17;22.90;;;20.80;;
16543;SDS011;8384;47.996;7.786;2023-03-01T00:45:43;23.40;;;21.20;;
16543;SDS011;8384;47.996;7.786;2023-03-01T00:48:08;23.37;;;21.27;;
16543;SDS011;8384;47.996;7.786;2023-03-01T00:50:33;22.83;;;20.83;;
16543;SDS011;8384;47.996;7.786;2023-03-01T00:52:59;22.07;;;20.17;;
16543;SDS011;8384;47.996;7.786;2023-03-01T00:55:24;23.03;;;20.93;;
16543;SDS011;8384;47.996;7.786;2023-03-01T00:57:50;23.00;;;20.90;;
16543;SDS011;8384;47.996;7.786;2023-03-01T01:00:16;23.70;;;21.60;;
16543;SDS011;8384;47.996;7.786;2023-03-01T01:02:42;23.42;;;21.27;;
16543;SDS011;8384;47.996;7.786;2023-03-01T01:05:07;23.33;;;21.23;;
16543;SDS011;8384;47.996;7.786;2023-03-01T01:07:33;23.53;;;21.33;;
16543;SDS011;8384;47.996;7.786;2023-03-01T01:09:58;23.52;;;21.40;;
16543;SDS011;8384;47.996;7.786;2023-03-01T01:12:23;23.83;;;21.63;;
16543;SDS011;8384;47.996;7.786;2023-03-01T01:14:49;23.33;;;21.27;;
16543;SDS011;8384;47.996;7.786;2023-03-01T01:17:14;23.87;;;21.70;;
16543;SDS011;8384;47.996;7.786;2023-03-01T01:19:39;24.33;;;22.13;;
16543;SDS011;8384;47.996;7.786;2023-03-01T01:22:04;24.57;;;22.17;;
16543;SDS011;8384;47.996;7.786;2023-03-01T01:24:31;23.10;;;21.00;;
16543;SDS011;8384;47.996;7.786;2023-03-01T01:26:56;23.70;;;21.53;;
16543;SDS011;8384;47.996;7.786;2023-03-01T01:29:22;23.43;;;21.33;;
16543;SDS011;8384;47.996;7.786;2023-03-01T01:31:47;24.73;;;22.43;;
16543;SDS011;8384;47.996;7.786;2023-03-01T01:34:14;24.58;;;22.25;;
16543;SDS011;8384;47.996;7.786;2023-03-01T01:36:41;24.90;;;22.52;;
16543;SDS011;8384;47.996;7.786;2023-03-01T01:39:07;24.17;;;21.88;;
16543;SDS011;8384;47.996;7.786;2023-03-01T01:41:32;24.10;;;22.00;;
16543;SDS011;8384;47.996;7.786;2023-03-01T01:47:05;25.25;;;22.92;;
16543;SDS011;8384;47.996;7.786;2023-03-01T01:49:38;24.55;;;22.30;;
16543;SDS011;8384;47.996;7.786;2023-03-01T01:57:18;24.60;;;22.40;;
16543;SDS011;8384;47.996;7.786;2023-03-01T01:59:50;23.95;;;21.75;;
16543;SDS011;8384;47.996;7.786;2023-03-01T02:02:17;23.98;;;21.83;;
16543;SDS011;8384;47.996;7.786;2023-03-01T02:04:44;24.63;;;22.30;;
16543;SDS011;8384;47.996;7.786;2023-03-01T02:07:17;25.05;;;22.55;;
16543;SDS011;8384;47.996;7.786;2023-03-01T02:09:46;25.40;;;23.07;;
16543;SDS011;8384;47.996;7.786;2023-03-01T02:15:35;24.60;;;22.40;;
16543;SDS011;8384;47.996;7.786;2023-03-01T02:18:02;25.92;;;23.52;;
16543;SDS011;8384;47.996;7.786;2023-03-01T02:20:33;24.52;;;22.20;;
16543;SDS011;8384;47.996;7.786;2023-03-01T02:23:11;25.25;;;22.95;;
16543;SDS011;8384;47.996;7.786;2023-03-01T02:30:40;25.63;;;23.13;;
16543;SDS011;8384;47.996;7.786;2023-03-01T02:33:28;29.80;;;26.70;;
16543;SDS011;8384;47.996;7.786;2023-03-01T02:35:57;30.00;;;27.10;;
16543;SDS011;8384;47.996;7.786;2023-03-01T02:38:24;25.80;;;23.40;;
16543;SDS011;8384;47.996;7.786;2023-03-01T02:40:50;25.00;;;22.80;;
16543;SDS011;8384;47.996;7.786;2023-03-01T02:43:17;25.83;;;23.38;;
16543;SDS011;8384;47.996;7.786;2023-03-01T02:45:49;25.65;;;23.35;;
16543;SDS011;8384;47.996;7.786;2023-03-01T02:48:16;26.27;;;23.77;;
16543;SDS011;8384;47.996;7.786;2023-03-01T02:50:47;28.17;;;25.57;;
16543;SDS011;8384;47.996;7.786;2023-03-01T02:53:26;25.92;;;23.42;;
16543;SDS011;8384;47.996;7.786;2023-03-01T02:56:00;25.85;;;23.50;;
16543;SDS011;8384;47.996;7.786;2023-03-01T02:58:26;25.80;;;23.37;;
16543;SDS011;8384;47.996;7.786;2023-03-01T03:00:51;26.05;;;23.52;;
16543;SDS011;8384;47.996;7.786;2023-03-01T03:03:17;26.50;;;24.00;;
16543;SDS011;8384;47.996;7.786;2023-03-01T03:05:45;26.40;;;23.92;;
16543;SDS011;8384;47.996;7.786;2023-03-01T03:08:11;25.40;;;23.07;;
16543;SDS011;8384;47.996;7.786;2023-03-01T03:10:37;26.30;;;23.90;;
16543;SDS011;8384;47.996;7.786;2023-03-01T03:13:12;26.73;;;24.20;;
16543;SDS011;8384;47.996;7.786;2023-03-01T03:15:39;26.77;;;24.27;;
16543;SDS011;8384;47.996;7.786;2023-03-01T03:18:07;26.40;;;23.90;;
16543;SDS011;8384;47.996;7.786;2023-03-01T03:20:35;26.80;;;24.30;;
16543;SDS011;8384;47.996;7.786;2023-03-01T03:23:01;26.52;;;24.13;;
16543;SDS011;8384;47.996;7.786;2023-03-01T03:25:27;27.17;;;24.67;;
16543;SDS011;8384;47.996;7.786;2023-03-01T03:27:54;27.08;;;24.48;;
16543;SDS011;8384;47.996;7.786;2023-03-01T03:30:21;27.23;;;24.73;;
16543;SDS011;8384;47.996;7.786;2023-03-01T03:32:48;26.88;;;24.33;;
16543;SDS011;8384;47.996;7.786;2023-03-01T03:37:48;27.83;;;25.07;;
16543;SDS011;8384;47.996;7.786;2023-03-01T03:40:30;28.38;;;25.67;;
16543;SDS011;8384;47.996;7.786;2023-03-01T03:43:06;27.02;;;24.50;;
16543;SDS011;8384;47.996;7.786;2023-03-01T03:45:34;26.08;;;23.77;;
16543;SDS011;8384;47.996;7.786;2023-03-01T03:48:00;26.33;;;23.83;;
16543;SDS011;8384;47.996;7.786;2023-03-01T03:50:26;26.83;;;24.42;;
16543;SDS011;8384;47.996;7.786;2023-03-01T03:52:51;26.93;;;24.43;;
16543;SDS011;8384;47.996;7.786;2023-03-01T03:55:17;27.05;;;24.45;;
16543;SDS011;8384;47.996;7.786;2023-03-01T03:57:45;27.30;;;24.60;;
16543;SDS011;8384;47.996;7.786;2023-03-01T04:00:19;26.85;;;24.20;;
16543;SDS011;8384;47.996;7.786;2023-03-01T04:02:46;25.92;;;23.52;;
16543;SDS011;8384;47.996;7.786;2023-03-01T04:05:13;27.30;;;24.70;;
16543;SDS011;8384;47.996;7.786;2023-03-01T04:07:40;26.97;;;24.57;;
16543;SDS011;8384;47.996;7.786;2023-03-01T04:10:09;27.25;;;24.75;;
16543;SDS011;8384;47.996;7.786;2023-03-01T04:12:36;26.65;;;24.20;;
16543;SDS011;8384;47.996;7.786;2023-03-01T04:15:02;26.77;;;24.17;;
16543;SDS011;8384;47.996;7.786;2023-03-01T04:17:37;26.60;;;24.20;;
16543;SDS011;8384;47.996;7.786;2023-03-01T04:20:04;26.88;;;24.27;;
16543;SDS011;8384;47.996;7.786;2023-03-01T04:22:30;27.30;;;24.80;;
16543;SDS011;8384;47.996;7.786;2023-03-01T04:24:56;27.77;;;25.10;;
16543;SDS011;8384;47.996;7.786;2023-03-01T04:27:22;26.55;;;23.95;;
16543;SDS011;8384;47.996;7.786;2023-03-01T04:29:47;25.03;;;22.80;;
16543;SDS011;8384;47.996;7.786;2023-03-01T04:32:12;26.03;;;23.63;;
16543;SDS011;8384;47.996;7.786;2023-03-01T04:34:41;25.48;;;23.17;;
16543;SDS011;8384;47.996;7.786;2023-03-01T04:37:06;26.77;;;24.37;;
16543;SDS011;8384;47.996;7.786;2023-03-01T04:39:31;25.53;;;23.23;;
16543;SDS011;8384;47.996;7.786;2023-03-01T04:41:57;26.85;;;24.35;;
16543;SDS011;8384;47.996;7.786;2023-03-01T04:44:22;25.53;;;23.23;;
16543;SDS011;8384;47.996;7.786;2023-03-01T04:46:48;26.33;;;23.92;;
16543;SDS011;8384;47.996;7.786;2023-03-01T04:49:15;26.65;;;24.25;;
16543;SDS011;8384;47.996;7.786;2023-03-01T04:51:40;26.85;;;24.42;;
16543;SDS011;8384;47.996;7.786;2023-03-01T04:54:06;25.27;;;22.87;;
16543;SDS011;8384;47.996;7.786;2023-03-01T04:56:33;26.85;;;24.42;;
16543;SDS011;8384;47.996;7.786;2023-03-01T04:58:59;27.38;;;24.77;;
16543;SDS011;8384;47.996;7.786;2023-03-01T05:01:25;25.70;;;23.40;;
16543;SDS011;8384;47.996;7.786;2023-03-01T05:03:51;31.97;;;28.97;;
16543;SDS011;8384;47.996;7.786;2023-03-01T05:06:16;26.95;;;24.55;;
16543;SDS011;8384;47.996;7.786;2023-03-01T05:08:43;26.25;;;23.85;;
16543;SDS011;8384;47.996;7.786;2023-03-01T05:11:09;25.70;;;23.30;;
16543;SDS011;8384;47.996;7.786;2023-03-01T05:13:35;25.90;;;23.52;;
16543;SDS011;8384;47.996;7.786;2023-03-01T05:16:02;25.88;;;23.48;;
16543;SDS011;8384;47.996;7.786;2023-03-01T05:18:29;25.87;;;23.47;;
16543;SDS011;8384;47.996;7.786;2023-03-01T05:21:01;26.20;;;23.80;;
16543;SDS011;8384;47.996;7.786;2023-03-01T05:23:29;24.48;;;22.27;;
16543;SDS011;8384;47.996;7.786;2023-03-01T05:25:57;24.65;;;22.35;;
16543;SDS011;8384;47.996;7.786;2023-03-01T05:28:24;25.80;;;23.40;;
16543;SDS011;8384;47.996;7.786;2023-03-01T05:30:50;24.43;;;22.17;;
16543;SDS011;8384;47.996;7.786;2023-03-01T05:33:16;24.40;;;22.20;;
16543;SDS011;8384;47.996;7.786;2023-03-01T05:35:43;25.40;;;23.00;;
16543;SDS011;8384;47.996;7.786;2023-03-01T05:38:09;24.98;;;22.77;;
16543;SDS011;8384;47.996;7.786;2023-03-01T05:40:38;26.20;;;23.80;;
16543;SDS011;8384;47.996;7.786;2023-03-01T05:43:04;25.63;;;23.33;;
16543;SDS011;8384;47.996;7.786;2023-03-01T05:45:30;25.40;;;23.10;;
16543;SDS011;8384;47.996;7.786;2023-03-01T05:47:57;24.23;;;22.13;;
16543;SDS011;8384;47.996;7.786;2023-03-01T05:50:27;24.83;;;22.52;;
16543;SDS011;8384;47.996;7.786;2023-03-01T05:53:01;23.98;;;21.77;;
16543;SDS011;8384;47.996;7.786;2023-03-01T05:55:30;27.30;;;24.70;;
16543;SDS011;8384;47.996;7.786;2023-03-01T05:57:57;25.13;;;22.92;;
16543;SDS011;8384;47.996;7.786;2023-03-01T06:00:27;24.50;;;22.30;;
16543;SDS011;8384;47.996;7.786;2023-03-01T06:02:53;25.98;;;23.50;;
16543;SDS011;8384;47.996;7.786;2023-03-01T06:05:19;25.25;;;22.95;;
16543;SDS011;8384;47.996;7.786;2023-03-01T06:07:45;25.60;;;23.00;;
16543;SDS011;8384;47.996;7.786;2023-03-01T06:10:11;23.80;;;21.70;;
16543;SDS011;8384;47.996;7.786;2023-03-01T06:12:38;24.48;;;22.35;;
16543;SDS011;8384;47.996;7.786;2023-03-01T06:15:05;24.80;;;22.50;;
16543;SDS011;8384;47.996;7.786;2023-03-01T06:17:32;26.75;;;24.35;;
16543;SDS011;8384;47.996;7.786;2023-03-01T06:20:03;24.85;;;22.65;;
16543;SDS011;8384;47.996;7.786;2023-03-01T06:22:36;24.83;;;22.48;;
16543;SDS011;8384;47.996;7.786;2023-03-01T06:25:02;24.00;;;21.80;;
16543;SDS011;8384;47.996;7.786;2023-03-01T06:27:27;25.13;;;22.83;;
16543;SDS011;8384;47.996;7.786;2023-03-01T06:29:53;25.17;;;22.77;;
16543;SDS011;8384;47.996;7.786;2023-03-01T06:32:18;24.70;;;22.50;;
16543;SDS011;8384;47.996;7.786;2023-03-01T06:34:43;24.73;;;22.40;;
16543;SDS011;8384;47.996;7.786;2023-03-01T06:37:09;24.90;;;22.50;;
16543;SDS011;8384;47.996;7.786;2023-03-01T06:39:34;24.60;;;22.30;;
16543;SDS011;8384;47.996;7.786;2023-03-01T06:41:59;25.53;;;23.13;;
16543;SDS011;8384;47.996;7.786;2023-03-01T06:44:25;24.80;;;22.50;;
16543;SDS011;8384;47.996;7.786;2023-03-01T06:46:50;25.27;;;22.87;;
16543;SDS011;8384;47.996;7.786;2023-03-01T06:49:15;24.38;;;22.17;;
16543;SDS011;8384;47.996;7.786;2023-03-01T06:51:42;25.30;;;22.92;;
16543;SDS011;8384;47.996;7.786;2023-03-01T06:54:08;24.83;;;22.52;;
16543;SDS011;8384;47.996;7.786;2023-03-01T06:56:33;25.23;;;22.93;;
16543;SDS011;8384;47.996;7.786;2023-03-01T06:58:58;23.13;;;20.97;;
16543;SDS011;8384;47.996;7.786;2023-03-01T07:01:24;23.37;;;21.30;;
16543;SDS011;8384;47.996;7.786;2023-03-01T07:03:49;23.07;;;21.03;;
16543;SDS011;8384;47.996;7.786;2023-03-01T07:06:14;24.43;;;22.23;;
16543;SDS011;8384;47.996;7.786;2023-03-01T07:08:40;23.67;;;21.57;;
16543;SDS011;8384;47.996;7.786;2023-03-01T07:11:05;24.67;;;22.48;;
16543;SDS011;8384;47.996;7.786;2023-03-01T07:13:30;24.83;;;22.37;;
16543;SDS011;8384;47.996;7.786;2023-03-01T07:15:56;24.40;;;22.10;;
16543;SDS011;8384;47.996;7.786;2023-03-01T07:18:22;23.93;;;21.73;;
16543;SDS011;8384;47.996;7.786;2023-03-01T07:20:47;24.10;;;21.70;;
16543;SDS011;8384;47.996;7.786;2023-03-01T07:23:12;24.10;;;22.00;;
16543;SDS011;8384;47.996;7.786;2023-03-01T07:25:38;24.92;;;22.63;;
16543;SDS011;8384;47.996;7.786;2023-03-01T07:28:03;23.77;;;21.57;;
16543;SDS011;8384;47.996;7.786;2023-03-01T07:30:29;24.07;;;21.93;;
16543;SDS011;8384;47.996;7.786;2023-03-01T07:32:54;24.70;;;22.43;;
16543;SDS011;8384;47.996;7.786;2023-03-01T07:35:21;24.50;;;22.30;;
16543;SDS011;8384;47.996;7.786;2023-03-01T07:37:48;24.70;;;22.45;;
16543;SDS011;8384;47.996;7.786;2023-03-01T07:40:13;24.83;;;22.53;;
16543;SDS011;8384;47.996;7.786;2023-03-01T07:42:38;25.17;;;22.77;;
16543;SDS011;8384;47.996;7.786;2023-03-01T07:45:04;25.37;;;22.93;;
16543;SDS011;8384;47.996;7.786;2023-03-01T07:47:30;24.73;;;22.52;;
16543;SDS011;8384;47.996;7.786;2023-03-01T07:49:56;25.27;;;22.90;;
16543;SDS011;8384;47.996;7.786;2023-03-01T07:52:21;25.70;;;23.30;;
16543;SDS011;8384;47.996;7.786;2023-03-01T07:54:46;24.67;;;22.38;;
16543;SDS011;8384;47.996;7.786;2023-03-01T07:57:12;25.20;;;22.90;;
16543;SDS011;8384;47.996;7.786;2023-03-01T07:59:37;25.00;;;22.80;;
16543;SDS011;8384;47.996;7.786;2023-03-01T08:02:02;24.73;;;22.40;;
16543;SDS011;8384;47.996;7.786;2023-03-01T08:04:28;24.43;;;22.13;;
16543;SDS011;8384;47.996;7.786;2023-03-01T08:06:54;24.40;;;22.20;;
16543;SDS011;8384;47.996;7.786;2023-03-01T08:09:19;24.55;;;22.33;;
16543;SDS011;8384;47.996;7.786;2023-03-01T08:11:45;24.47;;;22.30;;
16543;SDS011;8384;47.996;7.786;2023-03-01T08:14:11;25.23;;;22.83;;
16543;SDS011;8384;47.996;7.786;2023-03-01T08:16:36;25.25;;;22.95;;
16543;SDS011;8384;47.996;7.786;2023-03-01T08:19:05;25.42;;;23.20;;
16543;SDS011;8384;47.996;7.786;2023-03-01T08:21:31;24.63;;;22.42;;
16543;SDS011;8384;47.996;7.786;2023-03-01T08:23:59;25.60;;;23.30;;
16543;SDS011;8384;47.996;7.786;2023-03-01T08:26:25;24.98;;;22.58;;
16543;SDS011;8384;47.996;7.786;2023-03-01T08:28:50;25.03;;;22.67;;
16543;SDS011;8384;47.996;7.786;2023-03-01T08:31:23;24.87;;;22.57;;
16543;SDS011;8384;47.996;7.786;2023-03-01T08:33:51;25.23;;;22.98;;
16543;SDS011;8384;47.996;7.786;2023-03-01T08:36:22;24.23;;;22.13;;
16543;SDS011;8384;47.996;7.786;2023-03-01T08:38:52;24.77;;;22.45;;
16543;SDS011;8384;47.996;7.786;2023-03-01T08:41:17;23.87;;;21.77;;
16543;SDS011;8384;47.996;7.786;2023-03-01T08:43:43;24.10;;;22.00;;
16543;SDS011;8384;47.996;7.786;2023-03-01T08:46:08;24.43;;;22.23;;
16543;SDS011;8384;47.996;7.786;2023-03-01T08:48:34;24.95;;;22.65;;
16543;SDS011;8384;47.996;7.786;2023-03-01T08:51:13;25.83;;;23.50;;
16543;SDS011;8384;47.996;7.786;2023-03-01T08:53:40;25.10;;;22.87;;
16543;SDS011;8384;47.996;7.786;2023-03-01T08:56:06;25.85;;;23.45;;
16543;SDS011;8384;47.996;7.786;2023-03-01T08:58:32;24.27;;;22.08;;
16543;SDS011;8384;47.996;7.786;2023-03-01T09:00:58;25.30;;;22.80;;
16543;SDS011;8384;47.996;7.786;2023-03-01T09:03:24;25.40;;;23.10;;
16543;SDS011;8384;47.996;7.786;2023-03-01T09:05:50;24.83;;;22.52;;
16543;SDS011;8384;47.996;7.786;2023-03-01T09:08:16;24.48;;;22.27;;
16543;SDS011;8384;47.996;7.786;2023-03-01T09:10:42;23.98;;;21.88;;
16543;SDS011;8384;47.996;7.786;2023-03-01T09:13:08;25.07;;;22.87;;
16543;SDS011;8384;47.996;7.786;2023-03-01T09:15:33;25.58;;;23.27;;
16543;SDS011;8384;47.996;7.786;2023-03-01T09:17:59;24.63;;;22.43;;
16543;SDS011;8384;47.996;7.786;2023-03-01T09:20:24;24.90;;;22.60;;
16543;SDS011;8384;47.996;7.786;2023-03-01T09:22:49;25.35;;;23.05;;
16543;SDS011;8384;47.996;7.786;2023-03-01T09:25:15;25.77;;;23.47;;
16543;SDS011;8384;47.996;7.786;2023-03-01T09:27:40;25.30;;;23.00;;
16543;SDS011;8384;47.996;7.786;2023-03-01T09:30:06;25.17;;;22.87;;
16543;SDS011;8384;47.996;7.786;2023-03-01T09:32:32;25.48;;;23.08;;
16543;SDS011;8384;47.996;7.786;2023-03-01T09:34:57;24.93;;;22.63;;
16543;SDS011;8384;47.996;7.786;2023-03-01T09:37:32;25.30;;;23.00;;
16543;SDS011;8384;47.996;7.786;2023-03-01T09:39:58;25.13;;;22.90;;
16543;SDS011;8384;47.996;7.786;2023-03-01T09:42:23;25.53;;;23.33;;
16543;SDS011;8384;47.996;7.786;2023-03-01T09:44:51;25.80;;;23.50;;
16543;SDS011;8384;47.996;7.786;2023-03-01T09:47:26;24.80;;;22.50;;
16543;SDS011;8384;47.996;7.786;2023-03-01T09:52:35;26.00;;;23.70;;
16543;SDS011;8384;47.996;7.786;2023-03-01T09:55:13;26.30;;;23.80;;
16543;SDS011;8384;47.996;7.786;2023-03-01T10:00:16;25.63;;;23.20;;
16543;SDS011;8384;47.996;7.786;2023-03-01T10:02:46;25.33;;;23.10;;
16543;SDS011;8384;47.996;7.786;2023-03-01T10:05:31;25.90;;;23.63;;
16543;SDS011;8384;47.996;7.786;2023-03-01T10:10:33;26.45;;;24.05;;
16543;SDS011;8384;47.996;7.786;2023-03-01T10:13:10;26.03;;;23.73;;
16543;SDS011;8384;47.996;7.786;2023-03-01T10:15:52;25.38;;;22.98;;
16543;SDS011;8384;47.996;7.786;2023-03-01T10:18:23;26.17;;;23.85;;
16543;SDS011;8384;47.996;7.786;2023-03-01T10:20:52;26.92;;;24.48;;
16543;SDS011;8384;47.996;7.786;2023-03-01T10:23:22;25.35;;;23.15;;
16543;SDS011;8384;47.996;7.786;2023-03-01T10:31:15;24.97;;;22.70;;
16543;SDS011;8384;47.996;7.786;2023-03-01T10:33:52;25.08;;;22.75;;
16543;SDS011;8384;47.996;7.786;2023-03-01T10:36:20;24.20;;;22.00;;
16543;SDS011;8384;47.996;7.786;2023-03-01T10:38:55;25.17;;;22.98;;
16543;SDS011;8384;47.996;7.786;2023-03-01T10:41:23;25.50;;;23.10;;
16543;SDS011;8384;47.996;7.786;2023-03-01T10:46:34;25.23;;;22.83;;
16543;SDS011;8384;47.996;7.786;2023-03-01T10:51:44;26.05;;;23.67;;
16543;SDS011;8384;47.996;7.786;2023-03-01T10:54:18;25.20;;;22.80;;
16543;SDS011;8384;47.996;7.786;2023-03-01T10:56:51;25.67;;;23.38;;
16543;SDS011;8384;47.996;7.786;2023-03-01T11:04:34;26.50;;;24.15;;
16543;SDS011;8384;47.996;7.786;2023-03-01T11:07:00;26.07;;;23.77;;
16543;SDS011;8384;47.996;7.786;2023-03-01T11:09:29;25.33;;;23.05;;
16543;SDS011;8384;47.996;7.786;2023-03-01T11:12:02;25.80;;;23.35;;
16543;SDS011;8384;47.996;7.786;2023-03-01T11:14:33;25.73;;;23.42;;
16543;SDS011;8384;47.996;7.786;2023-03-01T11:17:21;25.85;;;23.50;;
16543;SDS011;8384;47.996;7.786;2023-03-01T11:23:13;25.67;;;23.42;;
16543;SDS011;8384;47.996;7.786;2023-03-01T11:25:47;26.27;;;23.83;;
16543;SDS011;8384;47.996;7.786;2023-03-01T11:28:19;26.13;;;23.73;;
16543;SDS011;8384;47.996;7.786;2023-03-01T11:36:00;25.80;;;23.50;;
16543;SDS011;8384;47.996;7.786;2023-03-01T11:38:30;25.05;;;22.75;;
16543;SDS011;8384;47.996;7.786;2023-03-01T11:43:33;25.75;;;23.45;;
16543;SDS011;8384;47.996;7.786;2023-03-01T11:51:42;26.47;;;24.07;;
16543;SDS011;8384;47.996;7.786;2023-03-01T12:00:00;24.92;;;22.48;;
16543;SDS011;8384;47.996;7.786;2023-03-01T12:05:55;23.48;;;21.40;;
16543;SDS011;8384;47.996;7.786;2023-03-01T12:22:30;22.33;;;20.33;;
16543;SDS011;8384;47.996;7.786;2023-03-01T12:25:38;21.38;;;19.50;;
16543;SDS011;8384;47.996;7.786;2023-03-01T12:31:08;21.33;;;19.42;;
16543;SDS011;8384;47.996;7.786;2023-03-01T12:33:51;20.88;;;18.98;;
16543;SDS011;8384;47.996;7.786;2023-03-01T12:42:22;21.73;;;19.73;;
16543;SDS011;8384;47.996;7.786;2023-03-01T12:45:16;21.17;;;19.27;;
16543;SDS011;8384;47.996;7.786;2023-03-01T12:50:51;20.80;;;18.90;;
16543;SDS011;8384;47.996;7.786;2023-03-01T12:56:19;21.90;;;19.90;;
16543;SDS011;8384;47.996;7.786;2023-03-01T13:01:44;19.95;;;18.15;;
16543;SDS011;8384;47.996;7.786;2023-03-01T13:04:18;20.75;;;18.95;;
16543;SDS011;8384;47.996;7.786;2023-03-01T13:06:58;20.53;;;18.73;;
16543;SDS011;8384;47.996;7.786;2023-03-01T13:09:40;19.42;;;17.83;;
16543;SDS011;8384;47.996;7.786;2023-03-01T13:17:52;18.45;;;16.75;;
16543;SDS011;8384;47.996;7.786;2023-03-01T13:20:29;18.98;;;17.17;;
16543;SDS011;8384;47.996;7.786;2023-03-01T13:23:02;18.70;;;17.10;;
16543;SDS011;8384;47.996;7.786;2023-03-01T13:25:30;18.65;;;17.05;;
16543;SDS011;8384;47.996;7.786;2023-03-01T13:30:58;18.80;;;17.20;;
16543;SDS011;8384;47.996;7.786;2023-03-01T13:35:52;18.83;;;17.13;;
16543;SDS011;8384;47.996;7.786;2023-03-01T13:41:06;18.17;;;16.58;;
16543;SDS011;8384;47.996;7.786;2023-03-01T13:43:36;18.23;;;16.63;;
16543;SDS011;8384;47.996;7.786;2023-03-01T13:46:15;17.27;;;15.77;;
16543;SDS011;8384;47.996;7.786;2023-03-01T13:48:45;18.00;;;16.48;;
16543;SDS011;8384;47.996;7.786;2023-03-01T13:51:15;18.08;;;16.55;;
16543;SDS011;8384;47.996;7.786;2023-03-01T13:53:44;17.23;;;15.82;;
16543;SDS011;8384;47.996;7.786;2023-03-01T13:56:15;17.60;;;16.10;;
16543;SDS011;8384;47.996;7.786;2023-03-01T13:58:46;17.30;;;15.80;;
16543;SDS011;8384;47.996;7.786;2023-03-01T14:01:25;16.90;;;15.50;;
16543;SDS011;8384;47.996;7.786;2023-03-01T14:03:56;17.95;;;16.45;;
16543;SDS011;8384;47.996;7.786;2023-03-01T14:06:23;17.23;;;15.73;;
16543;SDS011;8384;47.996;7.786;2023-03-01T14:14:44;17.43;;;15.93;;
16543;SDS011;8384;47.996;7.786;2023-03-01T14:17:17;17.60;;;16.10;;
16543;SDS011;8384;47.996;7.786;2023-03-01T14:19:55;17.48;;;15.90;;
16543;SDS011;8384;47.996;7.786;2023-03-01T14:22:24;17.80;;;16.35;;
16543;SDS011;8384;47.996;7.786;2023-03-01T14:25:00;17.30;;;15.80;;
16543;SDS011;8384;47.996;7.786;2023-03-01T14:27:30;18.23;;;16.63;;
16543;SDS011;8384;47.996;7.786;2023-03-01T14:30:01;17.42;;;15.82;;
16543;SDS011;8384;47.996;7.786;2023-03-01T14:32:35;17.23;;;15.73;;
16543;SDS011;8384;47.996;7.786;2023-03-01T14:35:00;17.53;;;16.03;;
16543;SDS011;8384;47.996;7.786;2023-03-01T14:37:27;17.48;;;16.00;;
16543;SDS011;8384;47.996;7.786;2023-03-01T14:40:03;23.45;;;21.45;;
16543;SDS011;8384;47.996;7.786;2023-03-01T14:42:30;24.70;;;22.60;;
16543;SDS011;8384;47.996;7.786;2023-03-01T14:44:59;25.30;;;23.10;;
16543;SDS011;8384;47.996;7.786;2023-03-01T14:47:29;26.05;;;23.65;;
16543;SDS011;8384;47.996;7.786;2023-03-01T14:50:02;25.65;;;23.35;;
16543;SDS011;8384;47.996;7.786;2023-03-01T14:52:36;26.27;;;23.90;;
16543;SDS011;8384;47.996;7.786;2023-03-01T14:55:05;27.00;;;24.55;;
16543;SDS011;8384;47.996;7.786;2023-03-01T14:57:38;26.65;;;24.17;;
16543;SDS011;8384;47.996;7.786;2023-03-01T15:00:10;25.58;;;23.27;;
16543;SDS011;8384;47.996;7.786;2023-03-01T15:02:55;26.05;;;23.85;;
16543;SDS011;8384;47.996;7.786;2023-03-01T15:05:29;25.90;;;23.65;;
16543;SDS011;8384;47.996;7.786;2023-03-01T15:07:57;24.65;;;22.45;;
16543;SDS011;8384;47.996;7.786;2023-03-01T15:10:26;25.58;;;23.27;;
16543;SDS011;8384;47.996;7.786;2023-03-01T15:12:54;26.67;;;24.30;;
16543;SDS011;8384;47.996;7.786;2023-03-01T15:15:41;25.83;;;23.42;;
16543;SDS011;8384;47.996;7.786;2023-03-01T15:18:28;25.95;;;23.65;;
16543;SDS011;8384;47.996;7.786;2023-03-01T15:20:54;25.85;;;23.55;;
16543;SDS011;8384;47.996;7.786;2023-03-01T15:23:25;25.77;;;23.48;;
16543;SDS011;8384;47.996;7.786;2023-03-01T15:25:52;26.48;;;24.02;;
16543;SDS011;8384;47.996;7.786;2023-03-01T15:28:23;25.70;;;23.50;;
16543;SDS011;8384;47.996;7.786;2023-03-01T15:30:55;26.65;;;24.35;;
16543;SDS011;8384;47.996;7.786;2023-03-01T15:33:36;26.80;;;24.33;;
16543;SDS011;8384;47.996;7.786;2023-03-01T15:36:48;26.42;;;23.92;;
16543;SDS011;8384;47.996;7.786;2023-03-01T15:38:56;26.75;;;24.42;;
16543;SDS011;8384;47.996;7.786;2023-03-01T15:41:27;26.33;;;24.13;;
16543;SDS011;8384;47.996;7.786;2023-03-01T15:43:56;26.48;;;24.08;;
16543;SDS011;8384;47.996;7.786;2023-03-01T15:46:24;27.02;;;24.52;;
16543;SDS011;8384;47.996;7.786;2023-03-01T15:48:52;27.15;;;24.70;;
16543;SDS011;8384;47.996;7.786;2023-03-01T15:51:22;27.13;;;24.63;;
16543;SDS011;8384;47.996;7.786;2023-03-01T15:53:54;27.05;;;24.45;;
16543;SDS011;8384;47.996;7.786;2023-03-01T15:56:20;27.43;;;25.13;;
16543;SDS011;8384;47.996;7.786;2023-03-01T15:58:45;27.83;;;25.23;;
16543;SDS011;8384;47.996;7.786;2023-03-01T16:01:14;27.07;;;24.47;;
16543;SDS011;8384;47.996;7.786;2023-03-01T16:03:44;27.17;;;24.67;;
16543;SDS011;8384;47.996;7.786;2023-03-01T16:06:10;27.35;;;24.67;;
16543;SDS011;8384;47.996;7.786;2023-03-01T16:08:37;27.25;;;24.75;;
16543;SDS011;8384;47.996;7.786;2023-03-01T16:11:03;27.38;;;24.92;;
16543;SDS011;8384;47.996;7.786;2023-03-01T16:13:30;26.50;;;24.10;;
16543;SDS011;8384;47.996;7.786;2023-03-01T16:15:56;27.20;;;24.80;;
16543;SDS011;8384;47.996;7.786;2023-03-01T16:18:22;26.40;;;24.00;;
16543;SDS011;8384;47.996;7.786;2023-03-01T16:20:47;27.30;;;24.87;;
16543;SDS011;8384;47.996;7.786;2023-03-01T16:23:14;27.92;;;25.35;;
16543;SDS011;8384;47.996;7.786;2023-03-01T16:25:39;26.50;;;24.10;;
16543;SDS011;8384;47.996;7.786;2023-03-01T16:28:05;27.60;;;25.00;;
16543;SDS011;8384;47.996;7.786;2023-03-01T16:30:36;27.52;;;25.02;;
16543;SDS011;8384;47.996;7.786;2023-03-01T16:33:04;27.88;;;25.30;;
16543;SDS011;8384;47.996;7.786;2023-03-01T16:35:33;27.75;;;25.25;;
16543;SDS011;8384;47.996;7.786;2023-03-01T16:38:04;26.70;;;24.20;;
16543;SDS011;8384;47.996;7.786;2023-03-01T16:40:29;27.60;;;25.07;;
16543;SDS011;8384;47.996;7.786;2023-03-01T16:42:55;26.63;;;24.23;;